Vesta, MN

3:30 AM CDT on November 01, 2014 (GMT -0500)
Redwood Falls Municipal | Change Station
CLOSE
Current Station
Airport
Location: Redwood Falls,
Elevation: 1024 ft
Nearby Weather Stations

Elev 1024 ft 44.55 °N, 95.08 °W | Updated 37 minutes ago

Partly Cloudy
Partly Cloudy
21 °F
Feels Like 11 °F
N
9
Wind Variable Wind from South

Today
High -- | Low -- °F
--% Chance of Precip.
Yesterday
High -- | Low -- °F
Precip. -- in
7:59 AM 6:10 PM
Waxing Gibbous, 64% visible
Pressure 30.48 in
Visibility 10.0 miles
Clouds Clear
Windchill 11 °F
Dew Point 13 °F
Humidity 71%
Rainfall 0.00 in
Snow Depth Not available.
UV 0 out of 12
Pollen .10 out of 12
Air Quality Not available.
Flu Activity Not available.
METAR KRWF 010753Z AUTO 17008KT 10SM CLR M06/M11 A3043 RMK AO2 SLP319 T10611106

More Conditions Fewer Conditions

Pressure 30.48 in
Visibility 10.0 miles
Clouds Clear
Windchill 11 °F
Dew Point 13 °F
Humidity 71%
Rainfall 0.00 in
Snow Depth Not available.
UV 0 out of 12
Pollen .10 out of 12
Air Quality Not available.
Flu Activity Not available.
METAR KRWF 010753Z AUTO 17008KT 10SM CLR M06/M11 A3043 RMK AO2 SLP319 T10611106

More Conditions Fewer Conditions

10-Day Weather Forecast

Almanac

Astronomy

Nov. 01, 2014 Rise Set
Actual Time
Civil Twilight
Nautical Twilight
Astronomical Twilight
Moon
Length of Visible Light
Length of Day
Tomorrow will be .
, % of the Moon is Illuminated

Today's Extremes

State Highs State Lows

Community

WunderPhotos

Upload Photos

1,766,869 photos uploaded!

WunderBlogs® & News

Nearby

Air Quality

  Air Quality AQ Index Pollutant
Not available.

Snow Depth

Station Depth Elevation

Earthquake Activity

City Distance Mag. Time & Date
Minimum magnitude displayed is 2.5.

Coastal Water Temperatures

Place Temperature

Nearby Weather Stations